Time;durP1;ratioP1;P1;durP2;ratioP2;P2;SDS_P1;SDS_P2;PMS_P1;PMS_P2;Temp;Humidity;BMP_temperature;BMP_pressure;BME280_temperature;BME280_humidity;BME280_pressure;Samples;Min_cycle;Max_cycle;Signal;HPM_P1;HPM_P2
2023/01/15 00:00:27;;;;;;;9.80;4.70;;;6.80;99.90;;;;;;10411995;28;20199;-84
2023/01/15 00:05:30;;;;;;;8.93;3.20;;;6.80;99.90;;;;;;10459610;28;20589;-83
2023/01/15 00:10:32;;;;;;;6.03;3.40;;;6.90;99.90;;;;;;10410525;28;20208;-84
2023/01/15 00:15:35;;;;;;;8.57;3.40;;;7.00;99.90;;;;;;10420999;28;20308;-83
2023/01/15 00:20:37;;;;;;;10.07;2.77;;;7.10;99.90;;;;;;10421488;28;20208;-81
2023/01/15 00:31:01;;;;;;;6.23;2.57;;;7.20;99.90;;;;;;10452029;28;20225;-82
2023/01/15 00:36:04;;;;;;;6.70;2.80;;;7.20;99.90;;;;;;10414849;28;20246;-82
2023/01/15 00:41:07;;;;;;;3.77;2.50;;;7.20;99.90;;;;;;10415549;28;20281;-81
2023/01/15 00:46:10;;;;;;;3.43;2.30;;;7.30;99.90;;;;;;10408829;28;20684;-82
2023/01/15 00:51:12;;;;;;;3.17;2.10;;;7.30;99.90;;;;;;10410378;28;20621;-81
2023/01/15 00:56:15;;;;;;;6.90;2.00;;;7.40;99.90;;;;;;10441407;28;20254;-83
2023/01/15 01:01:18;;;;;;;2.40;1.27;;;7.40;99.90;;;;;;10423221;28;20253;-83
2023/01/15 01:06:21;;;;;;;4.43;1.77;;;7.60;99.90;;;;;;10387733;28;20271;-83
2023/01/15 01:11:25;;;;;;;4.57;1.60;;;7.90;99.90;;;;;;10422126;28;20203;-82
2023/01/15 01:16:34;;;;;;;4.70;1.50;;;8.30;99.90;;;;;;10410508;28;20262;-82
2023/01/15 01:21:38;;;;;;;2.77;1.33;;;8.50;99.90;;;;;;10409786;28;20634;-83
2023/01/15 01:26:44;;;;;;;3.17;1.13;;;8.60;99.90;;;;;;10408734;28;20211;-83
2023/01/15 01:31:47;;;;;;;3.40;1.10;;;8.80;99.90;;;;;;10411659;28;20212;-82
2023/01/15 01:36:49;;;;;;;4.60;1.57;;;9.00;99.90;;;;;;10435157;28;20589;-82
2023/01/15 01:41:52;;;;;;;5.33;1.40;;;9.00;99.90;;;;;;10409177;28;20201;-82
2023/01/15 01:46:58;;;;;;;5.40;1.20;;;;;;;;;;10445008;28;20747;-81
2023/01/15 01:52:09;;;;;;;4.27;1.40;;;9.20;99.90;;;;;;10451988;28;20616;-82
2023/01/15 01:57:13;;;;;;;1.70;1.10;;;;;;;;;;10431087;28;20228;-83
2023/01/15 02:02:17;;;;;;;2.10;1.60;;;9.60;99.90;;;;;;10429368;28;20204;-82
2023/01/15 02:07:20;;;;;;;1.83;0.93;;;9.70;99.90;;;;;;10447967;28;20219;-82
2023/01/15 02:12:26;;;;;;;1.20;1.10;;;9.80;99.90;;;;;;10419366;28;20215;-82
2023/01/15 02:17:47;;;;;;;1.90;1.10;;;9.90;99.90;;;;;;10419786;28;20323;-82
2023/01/15 02:22:52;;;;;;;2.10;1.13;;;9.70;99.90;;;;;;10433424;28;20202;-82
2023/01/15 02:28:06;;;;;;;2.37;0.93;;;9.80;99.90;;;;;;10416811;28;20639;-83
2023/01/15 02:33:17;;;;;;;2.50;1.03;;;9.80;99.90;;;;;;10399541;28;20210;-83
2023/01/15 02:38:23;;;;;;;2.17;1.30;;;9.80;99.90;;;;;;10415872;28;20618;-82
2023/01/15 02:43:34;;;;;;;2.23;1.00;;;9.90;99.90;;;;;;10453605;28;20232;-82
2023/01/15 02:48:40;;;;;;;3.00;1.30;;;9.90;99.90;;;;;;10427027;28;20252;-82
2023/01/15 02:53:47;;;;;;;3.63;0.93;;;10.10;99.90;;;;;;10455821;28;20213;-82
2023/01/15 02:58:56;;;;;;;1.40;0.80;;;10.20;99.90;;;;;;10430837;28;20789;-82
2023/01/15 03:04:12;;;;;;;3.57;1.03;;;10.20;99.90;;;;;;10444447;28;20203;-82
2023/01/15 03:09:15;;;;;;;2.90;1.03;;;10.20;99.90;;;;;;10411358;28;20243;-83
2023/01/15 03:14:50;;;;;;;1.43;0.90;;;10.20;99.90;;;;;;10411158;28;20238;-82
2023/01/15 03:20:01;;;;;;;1.73;1.20;;;10.10;99.90;;;;;;10407017;28;20234;-82
2023/01/15 03:25:25;;;;;;;2.20;1.20;;;10.00;99.90;;;;;;10452540;28;20203;-82
2023/01/15 03:30:31;;;;;;;1.57;1.07;;;10.00;99.90;;;;;;10435990;28;20263;-82
2023/01/15 03:35:58;;;;;;;1.93;1.13;;;10.10;99.90;;;;;;10430094;28;20997;-82
2023/01/15 03:41:23;;;;;;;2.50;1.50;;;10.00;99.90;;;;;;10466427;28;20237;-83
2023/01/15 03:46:53;;;;;;;1.70;1.10;;;9.90;99.90;;;;;;10451450;28;20640;-82
2023/01/15 03:52:31;;;;;;;2.10;1.20;;;10.00;99.90;;;;;;10397286;28;20249;-82
2023/01/15 03:57:40;;;;;;;3.27;1.37;;;9.90;99.90;;;;;;10394968;28;20264;-82
2023/01/15 04:02:45;;;;;;;2.67;1.20;;;9.80;99.90;;;;;;10405255;28;20289;-83
2023/01/15 04:07:53;;;;;;;5.10;1.23;;;9.70;99.90;;;;;;10442371;28;20234;-82
2023/01/15 04:12:56;;;;;;;2.20;1.17;;;10.00;99.90;;;;;;10429695;28;20707;-82
2023/01/15 04:17:59;;;;;;;1.80;0.83;;;10.00;99.90;;;;;;10450150;28;20332;-82
2023/01/15 04:23:04;;;;;;;2.63;0.90;;;10.00;99.90;;;;;;10408720;28;20235;-83
2023/01/15 04:28:07;;;;;;;1.20;1.00;;;10.20;99.90;;;;;;10408790;28;20277;-82
2023/01/15 04:33:10;;;;;;;1.40;0.83;;;10.20;99.90;;;;;;10443655;28;20204;-82
2023/01/15 04:38:13;;;;;;;1.27;1.10;;;10.00;99.90;;;;;;10405714;28;20243;-83
2023/01/15 04:48:39;;;;;;;1.53;0.90;;;10.00;99.90;;;;;;10408024;28;20673;-82
2023/01/15 04:53:41;;;;;;;0.73;0.70;;;9.90;99.90;;;;;;10429571;28;20242;-82
2023/01/15 04:58:44;;;;;;;2.20;1.03;;;10.00;99.90;;;;;;10407228;28;20692;-82
2023/01/15 05:03:46;;;;;;;3.50;1.60;;;10.30;99.90;;;;;;10408755;28;20838;-83
2023/01/15 05:08:49;;;;;;;1.97;1.20;;;10.30;99.90;;;;;;10408153;28;20627;-82
2023/01/15 05:13:52;;;;;;;2.37;1.00;;;10.20;99.90;;;;;;10408540;28;20748;-82
2023/01/15 05:18:58;;;;;;;1.37;0.90;;;10.30;99.90;;;;;;10422487;28;20305;-82
2023/01/15 05:24:03;;;;;;;3.07;1.60;;;10.30;99.90;;;;;;10407189;28;20235;-82
2023/01/15 05:29:05;;;;;;;1.73;1.10;;;10.30;99.90;;;;;;10440979;28;20627;-82
2023/01/15 05:34:09;;;;;;;3.63;1.00;;;11.10;99.90;;;;;;10435200;28;20998;-83
2023/01/15 05:39:11;;;;;;;1.77;1.00;;;11.70;99.90;;;;;;10438716;28;20255;-83
2023/01/15 05:44:28;;;;;;;1.70;1.30;;;12.00;99.90;;;;;;10416607;28;20239;-83
2023/01/15 05:49:31;;;;;;;2.77;1.17;;;12.40;99.90;;;;;;10419796;28;20243;-82
2023/01/15 05:54:35;;;;;;;1.93;1.00;;;12.40;99.90;;;;;;10415221;28;20319;-83
2023/01/15 05:59:38;;;;;;;1.67;1.13;;;12.30;99.90;;;;;;10451237;28;20309;-83
2023/01/15 06:04:40;;;;;;;2.47;0.93;;;12.40;99.90;;;;;;10425102;28;20219;-82
2023/01/15 06:09:44;;;;;;;1.00;0.80;;;12.10;99.90;;;;;;10414248;28;20316;-83
2023/01/15 06:14:46;;;;;;;1.20;0.80;;;11.20;99.90;;;;;;10411912;28;20263;-83
2023/01/15 06:19:49;;;;;;;1.03;0.80;;;10.70;99.90;;;;;;10416670;28;20251;-83
2023/01/15 06:24:52;;;;;;;1.57;1.07;;;10.30;99.90;;;;;;10448643;28;20613;-83
2023/01/15 06:29:57;;;;;;;1.30;1.20;;;10.20;99.90;;;;;;10432889;28;20293;-83
2023/01/15 06:35:00;;;;;;;2.57;1.17;;;10.10;99.90;;;;;;10413551;28;20678;-83
2023/01/15 06:40:03;;;;;;;1.47;1.30;;;10.00;99.90;;;;;;10447377;28;20290;-83
2023/01/15 06:50:30;;;;;;;1.97;1.47;;;10.00;99.90;;;;;;10390681;28;20924;-82
2023/01/15 06:55:32;;;;;;;1.30;0.90;;;10.00;99.90;;;;;;10428110;28;20239;-83
2023/01/15 07:00:35;;;;;;;1.87;1.23;;;9.70;99.90;;;;;;10453801;28;20616;-83
2023/01/15 07:05:38;;;;;;;2.00;1.50;;;9.80;99.90;;;;;;10428884;28;20240;-83
2023/01/15 07:10:40;;;;;;;3.70;2.23;;;9.90;99.90;;;;;;10453612;28;20284;-83
2023/01/15 07:15:43;;;;;;;3.47;1.83;;;9.80;99.90;;;;;;10432158;28;20287;-83
2023/01/15 07:20:46;;;;;;;1.80;1.70;;;9.70;99.90;;;;;;10424297;28;20668;-83
2023/01/15 07:25:48;;;;;;;2.03;1.77;;;9.60;99.90;;;;;;10412472;28;20271;-83
2023/01/15 07:30:51;;;;;;;6.90;3.40;;;9.80;99.90;;;;;;10453395;28;20242;-82
2023/01/15 07:35:55;;;;;;;3.77;2.13;;;9.80;99.90;;;;;;10435052;28;20366;-82
2023/01/15 07:51:40;;;;;;;3.73;2.23;;;10.00;99.90;;;;;;10450619;28;20242;-83
2023/01/15 07:56:42;;;;;;;1.90;1.70;;;10.00;99.90;;;;;;10430820;28;20324;-83
2023/01/15 08:01:45;;;;;;;1.87;1.57;;;10.10;99.90;;;;;;10420346;28;20199;-83
2023/01/15 08:06:48;;;;;;;2.07;1.53;;;10.10;99.90;;;;;;10449493;28;20299;-83
2023/01/15 08:17:12;;;;;;;1.57;1.30;;;10.20;99.90;;;;;;10461433;28;20736;-83
2023/01/15 08:22:15;;;;;;;2.03;1.40;;;10.40;99.90;;;;;;10450190;28;20658;-83
2023/01/15 08:27:17;;;;;;;2.27;1.70;;;10.40;99.90;;;;;;10441080;28;20231;-83
2023/01/15 08:32:20;;;;;;;3.20;1.70;;;10.40;99.90;;;;;;10409381;28;20669;-83
2023/01/15 08:37:22;;;;;;;1.30;1.13;;;10.50;99.90;;;;;;10408219;28;20266;-82
2023/01/15 08:42:27;;;;;;;2.50;1.10;;;10.50;99.90;;;;;;10407604;28;20226;-82
2023/01/15 08:47:31;;;;;;;1.37;1.20;;;10.50;99.90;;;;;;10435055;28;20234;-83
2023/01/15 08:52:33;;;;;;;3.33;1.37;;;10.60;99.90;;;;;;10408254;28;20283;-83
2023/01/15 08:57:37;;;;;;;7.63;2.83;;;10.70;99.90;;;;;;10406571;28;20742;-82
2023/01/15 09:02:40;;;;;;;4.83;2.30;;;10.70;99.90;;;;;;10407548;28;20227;-82
2023/01/15 09:07:42;;;;;;;3.43;1.40;;;10.60;99.90;;;;;;10406191;28;21076;-83
2023/01/15 09:12:45;;;;;;;3.00;1.77;;;10.50;99.90;;;;;;10416445;28;20238;-83
2023/01/15 09:17:47;;;;;;;2.53;2.00;;;10.50;99.90;;;;;;10424542;28;20267;-83
2023/01/15 09:22:51;;;;;;;2.17;1.87;;;10.70;99.90;;;;;;10398344;28;20293;-82
2023/01/15 09:27:55;;;;;;;2.87;2.20;;;11.00;99.90;;;;;;10407774;28;20235;-82
2023/01/15 09:32:58;;;;;;;3.33;2.23;;;10.90;99.90;;;;;;10424772;28;20226;-82
2023/01/15 09:38:01;;;;;;;4.50;3.67;;;11.10;99.90;;;;;;10447433;28;20302;-82
2023/01/15 09:43:36;;;;;;;4.83;2.90;;;9.90;99.90;;;;;;10443907;28;20223;-81
2023/01/15 09:49:17;;;;;;;7.67;4.37;;;9.00;99.90;;;;;;10446480;28;20617;-82
2023/01/15 09:54:31;;;;;;;6.03;3.73;;;8.70;99.90;;;;;;10437382;28;20238;-82
2023/01/15 09:59:36;;;;;;;1.93;0.97;;;8.50;99.90;;;;;;10447919;28;20311;-82
2023/01/15 10:04:47;;;;;;;1.13;0.80;;;8.30;99.90;;;;;;10405215;28;20278;-82
2023/01/15 10:10:01;;;;;;;1.00;0.90;;;7.00;99.90;;;;;;10406087;28;20247;-82
2023/01/15 10:15:11;;;;;;;2.37;1.83;;;;;;;;;;10431716;28;20933;-82
2023/01/15 10:20:25;;;;;;;1.90;0.97;;;6.10;99.90;;;;;;10408728;28;20716;-82
2023/01/15 10:25:38;;;;;;;2.40;1.97;;;5.80;99.90;;;;;;10410446;28;20243;-82
2023/01/15 10:30:46;;;;;;;3.67;1.80;;;5.70;99.90;;;;;;10415944;28;20284;-82
2023/01/15 10:36:04;;;;;;;1.47;1.27;;;6.90;99.90;;;;;;10451800;28;20288;-82
2023/01/15 10:41:15;;;;;;;1.43;1.07;;;7.80;99.90;;;;;;10412559;28;20796;-81
2023/01/15 10:46:36;;;;;;;2.53;0.97;;;6.70;99.90;;;;;;10412666;28;20231;-82
2023/01/15 10:51:46;;;;;;;3.13;1.40;;;6.40;99.90;;;;;;10411834;28;20243;-83
2023/01/15 10:57:00;;;;;;;1.60;1.23;;;7.60;99.90;;;;;;10413740;28;20231;-84
2023/01/15 11:02:31;;;;;;;1.53;1.17;;;8.80;99.90;;;;;;10422281;28;20232;-83
2023/01/15 11:07:52;;;;;;;2.73;1.37;;;9.80;99.90;;;;;;10060622;28;9999945;-82
2023/01/15 11:24:15;;;;;;;7.67;3.50;;;11.40;99.90;;;;;;10415711;28;20690;-82
2023/01/15 11:29:31;;;;;;;1.90;1.20;;;11.40;99.90;;;;;;10412282;28;20774;-82
2023/01/15 11:34:35;;;;;;;2.20;0.83;;;12.20;99.90;;;;;;10426005;28;20231;-82
2023/01/15 11:39:38;;;;;;;3.47;1.30;;;12.30;99.90;;;;;;10408542;28;20251;-82
2023/01/15 11:55:49;;;;;;;1.93;1.10;;;13.00;99.90;;;;;;10424891;28;20365;-82
2023/01/15 12:00:55;;;;;;;1.93;0.97;;;13.30;99.90;;;;;;10405372;28;20328;-82
2023/01/15 12:06:04;;;;;;;2.40;1.47;;;13.10;99.90;;;;;;10407181;28;20304;-83
2023/01/15 12:11:26;;;;;;;4.80;2.73;;;12.30;99.90;;;;;;10409722;28;20235;-84
2023/01/15 12:16:39;;;;;;;2.22;1.35;;;11.70;99.90;;;;;;10087965;28;10000062;-85
2023/01/15 12:21:56;;;;;;;3.13;1.73;;;11.90;99.90;;;;;;10410556;28;20258;-84
2023/01/15 12:27:13;;;;;;;3.20;2.77;;;12.30;99.90;;;;;;10397352;28;20223;-84
2023/01/15 12:32:28;;;;;;;6.17;2.87;;;12.20;99.90;;;;;;10410250;28;20301;-84
2023/01/15 12:37:41;;;;;;;2.57;1.83;;;11.80;99.90;;;;;;10424997;28;20278;-83
2023/01/15 12:48:28;;;;;;;6.13;4.60;;;12.10;99.90;;;;;;10397638;28;20242;-82
2023/01/15 12:53:44;;;;;;;8.23;5.13;;;9.40;99.90;;;;;;10437667;28;20239;-82
2023/01/15 12:59:04;;;;;;;11.70;6.27;;;8.00;99.90;;;;;;10410583;28;20255;-82
2023/01/15 13:04:23;;;;;;;11.27;6.07;;;7.00;99.90;;;;;;10416335;28;20235;-81
2023/01/15 13:09:33;;;;;;;7.13;5.37;;;;;;;;;;10407477;28;20242;-81
2023/01/15 13:14:36;;;;;;;16.83;10.82;;;5.90;99.90;;;;;;10425439;28;20481;-80
2023/01/15 13:20:05;;;;;;;8.57;4.70;;;5.60;99.90;;;;;;10408627;28;20417;-80
2023/01/15 13:25:32;;;;;;;16.17;7.03;;;5.50;99.90;;;;;;10406929;28;20239;-80
2023/01/15 13:30:51;;;;;;;14.33;8.23;;;5.50;99.90;;;;;;10406659;28;20267;-81
2023/01/15 13:36:03;;;;;;;16.33;9.30;;;5.50;99.90;;;;;;10420025;28;20631;-81
2023/01/15 13:41:07;;;;;;;16.33;8.97;;;5.30;99.90;;;;;;10407679;28;20258;-81
2023/01/15 13:46:18;;;;;;;13.73;8.93;;;5.30;99.90;;;;;;10406221;28;20240;-81
2023/01/15 13:51:42;;;;;;;14.70;8.97;;;5.20;99.90;;;;;;10426206;28;20227;-81
2023/01/15 13:56:45;;;;;;;15.47;8.40;;;5.20;99.90;;;;;;10416790;28;20635;-81
2023/01/15 14:01:47;;;;;;;13.27;8.90;;;5.10;99.90;;;;;;10434542;28;20259;-82
2023/01/15 14:06:53;;;;;;;15.33;7.70;;;5.10;99.90;;;;;;10412421;28;20309;-82
2023/01/15 14:12:40;;;;;;;14.60;9.10;;;5.00;99.90;;;;;;10442581;28;20235;-82
2023/01/15 14:18:21;;;;;;;13.50;8.33;;;4.90;99.90;;;;;;10406169;28;20266;-81
2023/01/15 14:23:53;;;;;;;13.57;7.23;;;4.80;99.90;;;;;;10415125;28;20231;-81
2023/01/15 14:29:28;;;;;;;8.97;5.93;;;4.80;99.90;;;;;;10425262;28;20235;-82
2023/01/15 14:34:34;;;;;;;13.40;7.50;;;4.70;99.90;;;;;;10392845;28;20235;-81
2023/01/15 14:39:48;;;;;;;14.80;9.67;;;4.60;99.90;;;;;;10444515;28;20336;-82
2023/01/15 14:45:06;;;;;;;20.30;11.30;;;4.60;99.90;;;;;;10414903;28;20284;-82
2023/01/15 14:50:21;;;;;;;14.97;9.17;;;4.60;99.90;;;;;;10411674;28;20754;-81
2023/01/15 14:55:25;;;;;;;13.33;7.63;;;4.50;99.90;;;;;;10411975;28;20265;-81
2023/01/15 15:00:41;;;;;;;12.40;7.90;;;4.50;99.90;;;;;;10437133;28;20247;-81
2023/01/15 15:05:46;;;;;;;10.30;6.53;;;4.40;99.90;;;;;;10419679;28;20632;-81
2023/01/15 15:10:56;;;;;;;12.57;6.90;;;4.40;99.90;;;;;;10415502;28;20702;-81
2023/01/15 15:16:10;;;;;;;12.53;7.63;;;4.30;99.90;;;;;;10412524;28;20267;-81
2023/01/15 15:21:25;;;;;;;16.40;8.13;;;4.30;99.90;;;;;;10410250;28;20255;-81
2023/01/15 15:26:34;;;;;;;17.03;8.17;;;4.30;99.90;;;;;;10411858;28;20231;-82
2023/01/15 15:31:55;;;;;;;15.30;8.83;;;4.20;99.90;;;;;;10448722;28;20234;-81
2023/01/15 15:37:00;;;;;;;16.73;9.33;;;4.20;99.90;;;;;;10419995;28;20238;-81
2023/01/15 15:53:05;;;;;;;15.07;8.63;;;4.10;99.90;;;;;;10409316;28;20235;-81
2023/01/15 15:58:24;;;;;;;15.97;9.03;;;4.10;99.90;;;;;;10369064;28;20693;-81
2023/01/15 16:03:29;;;;;;;12.87;8.27;;;;;;;;;;10387819;28;20239;-80
2023/01/15 16:08:35;;;;;;;13.77;8.43;;;4.20;99.90;;;;;;10410792;28;20238;-81
2023/01/15 16:13:44;;;;;;;15.10;9.03;;;4.10;99.90;;;;;;10421098;28;20288;-81
2023/01/15 16:18:52;;;;;;;20.17;12.57;;;4.00;99.90;;;;;;10446274;28;20301;-80
2023/01/15 16:24:08;;;;;;;21.47;12.43;;;3.90;99.90;;;;;;10415670;28;20245;-81
2023/01/15 16:29:30;;;;;;;22.43;11.77;;;3.90;99.90;;;;;;10407807;28;20246;-81
2023/01/15 16:34:34;;;;;;;26.37;13.37;;;3.90;99.90;;;;;;10406800;28;20234;-81
2023/01/15 16:39:45;;;;;;;25.30;12.17;;;4.00;99.90;;;;;;9703977;28;10000706;-81
2023/01/15 16:44:55;;;;;;;28.00;14.93;;;4.10;99.90;;;;;;10409066;28;20252;-81
2023/01/15 16:50:23;;;;;;;12.77;8.83;;;4.20;99.90;;;;;;10415348;28;20243;-81
2023/01/15 16:55:35;;;;;;;16.53;8.43;;;4.30;99.90;;;;;;10408815;28;20235;-80
2023/01/15 17:00:43;;;;;;;12.67;8.30;;;4.30;99.90;;;;;;10404277;28;20263;-81
2023/01/15 17:05:59;;;;;;;12.50;7.67;;;4.40;99.90;;;;;;10416421;28;20869;-81
2023/01/15 17:11:03;;;;;;;11.33;7.23;;;4.30;99.90;;;;;;10440683;28;20246;-81
2023/01/15 17:16:12;;;;;;;8.97;5.80;;;4.20;99.90;;;;;;10435056;28;20321;-81
2023/01/15 17:21:18;;;;;;;11.17;6.60;;;4.30;99.90;;;;;;10405018;28;20254;-81
2023/01/15 17:26:24;;;;;;;17.10;9.23;;;4.30;99.90;;;;;;10404348;28;20231;-81
2023/01/15 17:31:29;;;;;;;15.03;8.87;;;4.30;99.90;;;;;;10405768;28;20243;-81
2023/01/15 17:36:33;;;;;;;14.27;8.37;;;4.20;99.90;;;;;;10413822;28;20246;-82
2023/01/15 17:41:36;;;;;;;16.30;8.17;;;4.20;99.90;;;;;;10411966;28;20250;-82
2023/01/15 17:46:38;;;;;;;16.73;8.60;;;4.20;99.90;;;;;;10416920;28;20222;-82
2023/01/15 17:51:42;;;;;;;14.97;7.93;;;4.20;99.90;;;;;;10452948;28;20268;-83
2023/01/15 18:07:39;;;;;;;12.73;6.37;;;4.10;99.90;;;;;;10424763;28;20277;-82
2023/01/15 18:12:42;;;;;;;11.70;5.73;;;4.20;99.90;;;;;;10425109;28;20238;-86
2023/01/15 18:17:45;;;;;;;9.00;5.33;;;4.30;99.90;;;;;;10448803;28;20266;-83
2023/01/15 18:22:48;;;;;;;15.57;8.57;;;4.20;99.90;;;;;;10412378;28;20503;-83
2023/01/15 18:27:50;;;;;;;15.47;9.27;;;4.00;99.90;;;;;;10418831;28;20243;-83
2023/01/15 18:32:53;;;;;;;15.97;7.43;;;3.90;99.90;;;;;;10408894;28;20597;-83
2023/01/15 18:37:56;;;;;;;9.73;7.17;;;3.70;99.90;;;;;;10410588;28;20707;-83
2023/01/15 18:48:20;;;;;;;14.07;6.23;;;3.70;99.90;;;;;;10428224;28;20261;-85
2023/01/15 18:53:23;;;;;;;10.73;6.50;;;3.50;99.90;;;;;;10450987;28;20272;-83
2023/01/15 18:58:26;;;;;;;11.90;7.03;;;3.50;99.90;;;;;;10446645;28;20300;-83
2023/01/15 19:03:30;;;;;;;12.90;6.13;;;3.50;99.90;;;;;;10450650;28;20767;-83
2023/01/15 19:08:33;;;;;;;9.83;5.13;;;3.80;99.90;;;;;;10423534;28;20977;-82
2023/01/15 19:13:36;;;;;;;10.23;5.93;;;3.50;99.90;;;;;;10424510;28;20288;-84
2023/01/15 19:18:41;;;;;;;10.00;5.50;;;3.50;99.90;;;;;;10426769;28;20277;-85
2023/01/15 19:23:44;;;;;;;8.40;5.07;;;3.50;99.90;;;;;;10410658;28;21019;-83
2023/01/15 19:28:46;;;;;;;7.90;4.93;;;3.50;99.90;;;;;;10428074;28;20288;-84
2023/01/15 19:33:49;;;;;;;7.83;5.30;;;3.50;99.90;;;;;;10451932;28;20234;-83
2023/01/15 19:38:52;;;;;;;12.13;6.77;;;;;;;;;;10428393;28;20259;-81
2023/01/15 19:54:55;;;;;;;10.47;5.03;;;3.20;99.90;;;;;;10403771;28;20321;-84
2023/01/15 19:59:58;;;;;;;12.10;6.47;;;3.20;99.90;;;;;;10400703;28;20287;-83
2023/01/15 20:05:01;;;;;;;11.13;6.10;;;;;;;;;;10407103;28;20226;-82
2023/01/15 20:10:07;;;;;;;12.85;8.30;;;3.20;99.90;;;;;;10405660;28;20461;-82
2023/01/15 20:15:10;;;;;;;14.33;6.13;;;3.10;99.90;;;;;;10401999;28;20289;-82
2023/01/15 20:20:12;;;;;;;17.05;7.85;;;3.00;99.90;;;;;;10419423;28;21071;-83
2023/01/15 20:25:16;;;;;;;573.93;264.20;;;;;;;;;;10407537;28;20638;-84
2023/01/15 20:30:23;;;;;;;552.00;280.53;;;5.10;99.90;;;;;;10405848;28;20265;-83
2023/01/15 20:35:32;;;;;;;46.63;24.03;;;6.10;99.90;;;;;;10403286;28;20691;-84
2023/01/15 20:40:35;;;;;;;42.60;19.43;;;7.70;99.90;;;;;;10403283;28;20301;-82
2023/01/15 20:45:39;;;;;;;13.27;7.27;;;5.60;99.90;;;;;;10402962;28;20880;-83
2023/01/15 20:51:06;;;;;;;58.70;26.83;;;4.20;99.90;;;;;;10404957;28;20302;-84
2023/01/15 20:56:14;;;;;;;16.20;6.93;;;4.00;99.90;;;;;;10401813;28;20301;-82
2023/01/15 21:01:17;;;;;;;17.40;7.80;;;;;;;;;;10406661;28;20306;-81
2023/01/15 21:06:21;;;;;;;9.23;5.00;;;7.00;99.90;;;;;;10401350;28;20940;-81
2023/01/15 21:11:24;;;;;;;14.50;6.73;;;;;;;;;;10431646;28;20235;-82
2023/01/15 21:16:27;;;;;;;10.60;5.97;;;6.40;99.90;;;;;;10424464;28;20622;-82
2023/01/15 21:21:32;;;;;;;8.37;4.40;;;7.00;99.90;;;;;;10412321;28;20245;-81
2023/01/15 21:26:35;;;;;;;8.33;4.73;;;7.20;99.90;;;;;;10408362;28;20229;-81
2023/01/15 21:31:38;;;;;;;5.43;3.53;;;7.00;99.90;;;;;;10406236;28;20271;-81
2023/01/15 21:36:41;;;;;;;9.60;4.07;;;7.70;99.90;;;;;;10416034;28;20235;-82
2023/01/15 21:47:10;;;;;;;7.13;4.43;;;8.10;99.90;;;;;;10416139;28;20288;-82
2023/01/15 21:52:15;;;;;;;8.83;4.13;;;8.90;99.90;;;;;;10439343;28;20234;-84
2023/01/15 21:57:18;;;;;;;6.03;2.93;;;8.40;99.90;;;;;;10408236;28;20236;-84
2023/01/15 22:02:22;;;;;;;5.17;3.33;;;7.00;99.90;;;;;;10428278;28;20247;-83
2023/01/15 22:07:25;;;;;;;5.30;3.37;;;7.00;99.90;;;;;;10366851;28;20204;-83
2023/01/15 22:12:27;;;;;;;6.13;3.50;;;7.80;99.90;;;;;;10417567;28;20284;-82
2023/01/15 22:17:30;;;;;;;6.00;3.83;;;7.20;99.90;;;;;;10403126;28;20274;-81
2023/01/15 22:22:35;;;;;;;8.57;4.40;;;7.10;99.90;;;;;;10434808;28;20262;-81
2023/01/15 22:27:39;;;;;;;7.77;4.43;;;8.40;99.90;;;;;;10434567;28;20242;-82
2023/01/15 22:32:42;;;;;;;6.77;3.83;;;9.60;99.90;;;;;;10426091;28;20256;-81
2023/01/15 22:37:45;;;;;;;5.27;3.83;;;9.80;99.90;;;;;;10429929;28;20256;-80
2023/01/15 22:42:47;;;;;;;7.17;3.23;;;9.40;99.90;;;;;;10413221;28;20257;-80
2023/01/15 22:47:50;;;;;;;6.83;4.03;;;9.80;98.50;;;;;;10412532;28;20188;-81
2023/01/15 22:52:55;;;;;;;7.50;3.30;;;10.40;99.90;;;;;;10413672;28;20330;-81
2023/01/15 22:57:57;;;;;;;5.83;3.53;;;9.40;99.90;;;;;;10411753;28;20258;-79
2023/01/15 23:03:06;;;;;;;16.27;4.33;;;9.20;99.90;;;;;;10411466;28;20263;-79
2023/01/15 23:08:09;;;;;;;4.37;2.60;;;9.30;99.90;;;;;;10415404;28;20290;-79
2023/01/15 23:13:12;;;;;;;6.00;2.23;;;8.20;97.60;;;;;;10422709;28;20767;-83
2023/01/15 23:18:14;;;;;;;4.60;2.20;;;7.40;98.30;;;;;;10422447;28;20285;-82
2023/01/15 23:23:17;;;;;;;4.57;2.30;;;6.30;99.90;;;;;;10412432;28;20261;-82
2023/01/15 23:28:20;;;;;;;4.47;2.60;;;6.30;99.90;;;;;;10412155;28;20955;-82
2023/01/15 23:33:22;;;;;;;6.37;3.87;;;6.80;99.90;;;;;;10425071;28;20259;-82
2023/01/15 23:38:25;;;;;;;5.87;3.03;;;7.90;99.90;;;;;;10416114;28;20242;-81
2023/01/15 23:48:49;;;;;;;4.47;2.97;;;7.40;99.90;;;;;;10412409;28;20649;-81
2023/01/15 23:53:52;;;;;;;4.33;2.57;;;7.60;99.90;;;;;;10411580;28;20203;-81
2023/01/15 23:58:55;;;;;;;5.13;2.90;;;7.00;99.90;;;;;;10411029;28;20671;-81
